sensor_id;sensor_type;location;lat;lon;timestamp;pressure;altitude;pressure_sealevel;temperature;humidity
41830;BME280;38614;43.472;23.936;2022-11-15T00:00:10;101092.16;;;7.84;100.00
41830;BME280;38614;43.472;23.936;2022-11-15T00:03:17;101067.31;;;7.67;100.00
41830;BME280;38614;43.472;23.936;2022-11-15T00:06:24;101069.63;;;7.74;100.00
41830;BME280;38614;43.472;23.936;2022-11-15T00:09:30;101084.69;;;7.76;100.00
41830;BME280;38614;43.472;23.936;2022-11-15T00:12:36;101082.09;;;7.80;100.00
41830;BME280;38614;43.472;23.936;2022-11-15T00:15:42;101077.41;;;7.80;100.00
41830;BME280;38614;43.472;23.936;2022-11-15T00:18:48;101085.00;;;7.75;100.00
41830;BME280;38614;43.472;23.936;2022-11-15T00:21:55;101079.50;;;7.75;100.00
41830;BME280;38614;43.472;23.936;2022-11-15T00:25:02;101079.81;;;7.73;100.00
41830;BME280;38614;43.472;23.936;2022-11-15T00:28:09;101073.84;;;7.80;100.00
41830;BME280;38614;43.472;23.936;2022-11-15T00:31:15;101086.81;;;7.88;100.00
41830;BME280;38614;43.472;23.936;2022-11-15T00:34:21;101081.97;;;7.85;100.00
41830;BME280;38614;43.472;23.936;2022-11-15T00:37:27;101075.66;;;7.84;100.00
41830;BME280;38614;43.472;23.936;2022-11-15T00:40:33;101068.69;;;7.87;100.00
41830;BME280;38614;43.472;23.936;2022-11-15T00:43:39;101063.66;;;7.80;100.00
41830;BME280;38614;43.472;23.936;2022-11-15T00:46:47;101062.22;;;7.83;100.00
41830;BME280;38614;43.472;23.936;2022-11-15T00:49:54;101056.53;;;7.79;100.00
41830;BME280;38614;43.472;23.936;2022-11-15T00:53:00;101054.53;;;7.71;100.00
41830;BME280;38614;43.472;23.936;2022-11-15T00:56:06;101058.38;;;7.61;100.00
41830;BME280;38614;43.472;23.936;2022-11-15T00:59:15;101046.91;;;7.59;100.00
41830;BME280;38614;43.472;23.936;2022-11-15T01:02:21;101048.19;;;7.62;100.00
41830;BME280;38614;43.472;23.936;2022-11-15T01:05:30;101043.34;;;7.59;100.00
41830;BME280;38614;43.472;23.936;2022-11-15T01:08:41;101048.88;;;7.67;100.00
41830;BME280;38614;43.472;23.936;2022-11-15T01:11:47;101028.50;;;7.68;100.00
41830;BME280;38614;43.472;23.936;2022-11-15T01:14:53;101043.56;;;7.80;100.00
41830;BME280;38614;43.472;23.936;2022-11-15T01:18:00;101028.66;;;7.72;100.00
41830;BME280;38614;43.472;23.936;2022-11-15T01:21:15;101039.56;;;7.86;100.00
41830;BME280;38614;43.472;23.936;2022-11-15T01:24:22;101033.72;;;7.87;100.00
41830;BME280;38614;43.472;23.936;2022-11-15T01:27:28;101027.88;;;7.80;100.00
41830;BME280;38614;43.472;23.936;2022-11-15T01:30:35;101043.09;;;7.78;100.00
41830;BME280;38614;43.472;23.936;2022-11-15T01:33:42;101022.22;;;7.77;100.00
41830;BME280;38614;43.472;23.936;2022-11-15T01:36:48;101026.75;;;7.72;100.00
41830;BME280;38614;43.472;23.936;2022-11-15T01:39:55;101029.16;;;7.74;100.00
41830;BME280;38614;43.472;23.936;2022-11-15T01:46:33;101012.09;;;7.55;100.00
41830;BME280;38614;43.472;23.936;2022-11-15T01:49:58;101030.38;;;7.59;100.00
41830;BME280;38614;43.472;23.936;2022-11-15T01:53:08;101027.16;;;7.57;100.00
41830;BME280;38614;43.472;23.936;2022-11-15T01:56:23;101001.44;;;7.62;100.00
41830;BME280;38614;43.472;23.936;2022-11-15T01:59:30;101032.03;;;7.69;100.00
41830;BME280;38614;43.472;23.936;2022-11-15T02:02:37;101028.28;;;7.56;100.00
41830;BME280;38614;43.472;23.936;2022-11-15T02:05:44;101034.44;;;7.62;100.00
41830;BME280;38614;43.472;23.936;2022-11-15T02:08:50;101024.13;;;7.67;100.00
41830;BME280;38614;43.472;23.936;2022-11-15T02:11:57;101023.78;;;7.69;100.00
41830;BME280;38614;43.472;23.936;2022-11-15T02:15:06;101010.38;;;7.67;100.00
41830;BME280;38614;43.472;23.936;2022-11-15T02:18:24;101022.34;;;7.71;100.00
41830;BME280;38614;43.472;23.936;2022-11-15T02:21:41;101001.09;;;7.55;100.00
41830;BME280;38614;43.472;23.936;2022-11-15T02:31:45;101011.34;;;7.71;100.00
41830;BME280;38614;43.472;23.936;2022-11-15T02:41:42;100996.44;;;7.64;100.00
41830;BME280;38614;43.472;23.936;2022-11-15T02:44:55;100977.13;;;7.47;100.00
41830;BME280;38614;43.472;23.936;2022-11-15T02:48:04;100992.53;;;7.56;100.00
41830;BME280;38614;43.472;23.936;2022-11-15T02:51:13;101004.50;;;7.60;100.00
41830;BME280;38614;43.472;23.936;2022-11-15T02:54:22;100989.75;;;7.48;100.00
41830;BME280;38614;43.472;23.936;2022-11-15T02:57:51;101005.16;;;7.57;100.00
41830;BME280;38614;43.472;23.936;2022-11-15T03:01:18;101001.41;;;7.53;100.00
41830;BME280;38614;43.472;23.936;2022-11-15T03:07:58;101007.06;;;7.48;100.00
41830;BME280;38614;43.472;23.936;2022-11-15T03:11:08;100998.44;;;7.41;100.00
41830;BME280;38614;43.472;23.936;2022-11-15T03:14:20;100986.16;;;7.38;100.00
41830;BME280;38614;43.472;23.936;2022-11-15T03:17:38;100993.78;;;7.50;100.00
41830;BME280;38614;43.472;23.936;2022-11-15T03:20:48;100976.94;;;7.43;100.00
41830;BME280;38614;43.472;23.936;2022-11-15T03:23:55;100989.75;;;7.48;100.00
41830;BME280;38614;43.472;23.936;2022-11-15T03:27:05;100988.28;;;7.50;100.00
41830;BME280;38614;43.472;23.936;2022-11-15T03:30:13;100990.72;;;7.52;100.00
41830;BME280;38614;43.472;23.936;2022-11-15T03:33:20;100988.28;;;7.50;100.00
41830;BME280;38614;43.472;23.936;2022-11-15T03:36:28;100976.47;;;7.50;100.00
41830;BME280;38614;43.472;23.936;2022-11-15T03:39:37;100964.53;;;7.54;100.00
41830;BME280;38614;43.472;23.936;2022-11-15T03:42:46;100932.59;;;7.36;100.00
41830;BME280;38614;43.472;23.936;2022-11-15T03:46:07;100960.66;;;7.55;100.00
41830;BME280;38614;43.472;23.936;2022-11-15T03:49:25;100959.66;;;7.51;100.00
41830;BME280;38614;43.472;23.936;2022-11-15T03:52:34;100957.38;;;7.45;100.00
41830;BME280;38614;43.472;23.936;2022-11-15T03:55:40;100924.94;;;7.24;100.00
41830;BME280;38614;43.472;23.936;2022-11-15T03:58:47;100952.19;;;7.43;100.00
41830;BME280;38614;43.472;23.936;2022-11-15T04:01:53;100935.53;;;7.39;100.00
41830;BME280;38614;43.472;23.936;2022-11-15T04:05:18;100936.34;;;7.40;100.00
41830;BME280;38614;43.472;23.936;2022-11-15T04:08:24;100948.31;;;7.44;100.00
41830;BME280;38614;43.472;23.936;2022-11-15T04:11:30;100932.13;;;7.42;100.00
41830;BME280;38614;43.472;23.936;2022-11-15T04:14:36;100941.25;;;7.60;100.00
41830;BME280;38614;43.472;23.936;2022-11-15T04:17:46;100940.75;;;7.58;100.00
41830;BME280;38614;43.472;23.936;2022-11-15T04:20:52;100946.09;;;7.55;100.00
41830;BME280;38614;43.472;23.936;2022-11-15T04:24:17;100940.25;;;7.48;100.00
41830;BME280;38614;43.472;23.936;2022-11-15T04:27:23;100937.63;;;7.42;100.00
41830;BME280;38614;43.472;23.936;2022-11-15T04:30:29;100938.13;;;7.45;100.00
41830;BME280;38614;43.472;23.936;2022-11-15T04:33:36;100936.34;;;7.49;100.00
41830;BME280;38614;43.472;23.936;2022-11-15T04:36:42;100934.91;;;7.51;100.00
41830;BME280;38614;43.472;23.936;2022-11-15T04:40:07;100923.75;;;7.48;100.00
41830;BME280;38614;43.472;23.936;2022-11-15T04:43:13;100939.25;;;7.43;100.00
41830;BME280;38614;43.472;23.936;2022-11-15T04:46:20;100917.41;;;7.38;100.00
41830;BME280;38614;43.472;23.936;2022-11-15T04:49:29;100930.50;;;7.41;100.00
41830;BME280;38614;43.472;23.936;2022-11-15T04:52:35;100929.88;;;7.45;100.00
41830;BME280;38614;43.472;23.936;2022-11-15T04:55:45;100920.53;;;7.54;100.00
41830;BME280;38614;43.472;23.936;2022-11-15T04:58:52;100922.16;;;7.55;100.00
41830;BME280;38614;43.472;23.936;2022-11-15T05:01:58;100915.03;;;7.54;100.00
41830;BME280;38614;43.472;23.936;2022-11-15T05:05:05;100912.41;;;7.49;100.00
41830;BME280;38614;43.472;23.936;2022-11-15T05:08:11;100919.41;;;7.55;100.00
41830;BME280;38614;43.472;23.936;2022-11-15T05:11:22;100912.91;;;7.51;100.00
41830;BME280;38614;43.472;23.936;2022-11-15T05:14:28;100910.00;;;7.48;100.00
41830;BME280;38614;43.472;23.936;2022-11-15T05:17:35;100917.59;;;7.51;100.00
41830;BME280;38614;43.472;23.936;2022-11-15T05:20:41;100921.97;;;7.52;100.00
41830;BME280;38614;43.472;23.936;2022-11-15T05:23:48;100924.72;;;7.52;100.00
41830;BME280;38614;43.472;23.936;2022-11-15T05:26:54;100911.59;;;7.49;100.00
41830;BME280;38614;43.472;23.936;2022-11-15T05:30:00;100901.41;;;7.49;100.00
41830;BME280;38614;43.472;23.936;2022-11-15T05:33:06;100912.56;;;7.44;100.00
41830;BME280;38614;43.472;23.936;2022-11-15T05:36:21;100892.31;;;7.31;100.00
41830;BME280;38614;43.472;23.936;2022-11-15T05:39:31;100912.75;;;7.48;100.00
41830;BME280;38614;43.472;23.936;2022-11-15T05:42:40;100909.19;;;7.47;100.00
41830;BME280;38614;43.472;23.936;2022-11-15T05:45:46;100915.97;;;7.50;100.00
41830;BME280;38614;43.472;23.936;2022-11-15T05:48:53;100911.94;;;7.47;100.00
41830;BME280;38614;43.472;23.936;2022-11-15T05:52:05;100922.94;;;7.47;100.00
41830;BME280;38614;43.472;23.936;2022-11-15T05:55:12;100911.28;;;7.50;100.00
41830;BME280;38614;43.472;23.936;2022-11-15T05:58:19;100923.91;;;7.51;100.00
41830;BME280;38614;43.472;23.936;2022-11-15T06:01:27;100903.47;;;7.35;100.00
41830;BME280;38614;43.472;23.936;2022-11-15T06:04:33;100914.81;;;7.42;100.00
41830;BME280;38614;43.472;23.936;2022-11-15T06:07:39;100917.91;;;7.49;100.00
41830;BME280;38614;43.472;23.936;2022-11-15T06:10:46;100917.09;;;7.40;100.00
41830;BME280;38614;43.472;23.936;2022-11-15T06:13:52;100891.00;;;7.29;100.00
41830;BME280;38614;43.472;23.936;2022-11-15T06:17:00;100915.50;;;7.56;100.00
41830;BME280;38614;43.472;23.936;2022-11-15T06:20:12;100907.59;;;7.55;100.00
41830;BME280;38614;43.472;23.936;2022-11-15T06:23:19;100918.25;;;7.56;100.00
41830;BME280;38614;43.472;23.936;2022-11-15T06:26:25;100922.31;;;7.59;100.00
41830;BME280;38614;43.472;23.936;2022-11-15T06:29:31;100920.22;;;7.64;100.00
41830;BME280;38614;43.472;23.936;2022-11-15T06:32:37;100919.59;;;7.67;100.00
41830;BME280;38614;43.472;23.936;2022-11-15T06:35:44;100919.06;;;7.57;100.00
41830;BME280;38614;43.472;23.936;2022-11-15T06:38:50;100928.13;;;7.57;100.00
41830;BME280;38614;43.472;23.936;2022-11-15T06:41:56;100903.53;;;7.52;100.00
41830;BME280;38614;43.472;23.936;2022-11-15T06:45:03;100921.69;;;7.79;100.00
41830;BME280;38614;43.472;23.936;2022-11-15T06:48:09;100887.69;;;7.58;100.00
41830;BME280;38614;43.472;23.936;2022-11-15T06:51:15;100914.44;;;7.83;100.00
41830;BME280;38614;43.472;23.936;2022-11-15T06:54:22;100917.00;;;7.88;100.00
41830;BME280;38614;43.472;23.936;2022-11-15T06:57:28;100916.53;;;7.95;100.00
41830;BME280;38614;43.472;23.936;2022-11-15T07:00:36;100918.16;;;7.96;100.00
41830;BME280;38614;43.472;23.936;2022-11-15T07:03:52;100918.81;;;7.93;100.00
41830;BME280;38614;43.472;23.936;2022-11-15T07:07:10;100919.13;;;8.00;100.00
41830;BME280;38614;43.472;23.936;2022-11-15T07:10:24;100922.06;;;8.04;100.00
41830;BME280;38614;43.472;23.936;2022-11-15T07:13:31;100901.66;;;8.05;100.00
41830;BME280;38614;43.472;23.936;2022-11-15T07:16:41;100905.22;;;7.96;100.00
41830;BME280;38614;43.472;23.936;2022-11-15T07:19:47;100897.75;;;7.97;100.00
41830;BME280;38614;43.472;23.936;2022-11-15T07:23:04;100887.22;;;7.90;100.00
41830;BME280;38614;43.472;23.936;2022-11-15T07:26:11;100883.84;;;7.93;100.00
41830;BME280;38614;43.472;23.936;2022-11-15T07:29:17;100884.19;;;8.00;100.00
41830;BME280;38614;43.472;23.936;2022-11-15T07:32:23;100890.97;;;8.12;100.00
41830;BME280;38614;43.472;23.936;2022-11-15T07:35:29;100886.75;;;8.14;100.00
41830;BME280;38614;43.472;23.936;2022-11-15T07:38:35;100881.72;;;8.16;100.00
41830;BME280;38614;43.472;23.936;2022-11-15T07:41:50;100883.66;;;8.24;100.00
41830;BME280;38614;43.472;23.936;2022-11-15T07:45:16;100885.13;;;8.22;100.00
41830;BME280;38614;43.472;23.936;2022-11-15T07:48:22;100895.81;;;8.32;100.00
41830;BME280;38614;43.472;23.936;2022-11-15T07:51:29;100884.00;;;8.23;100.00
41830;BME280;38614;43.472;23.936;2022-11-15T07:54:35;100889.84;;;8.21;100.00
41830;BME280;38614;43.472;23.936;2022-11-15T07:57:41;100892.41;;;8.09;100.00
41830;BME280;38614;43.472;23.936;2022-11-15T08:00:47;100869.09;;;7.98;100.00
41830;BME280;38614;43.472;23.936;2022-11-15T08:03:56;100879.78;;;7.99;100.00
41830;BME280;38614;43.472;23.936;2022-11-15T08:07:02;100856.31;;;7.85;100.00
41830;BME280;38614;43.472;23.936;2022-11-15T08:10:08;100873.81;;;8.06;100.00
41830;BME280;38614;43.472;23.936;2022-11-15T08:13:14;100854.38;;;8.03;100.00
41830;BME280;38614;43.472;23.936;2022-11-15T08:16:21;100865.38;;;8.11;100.00
41830;BME280;38614;43.472;23.936;2022-11-15T08:19:27;100869.44;;;8.22;100.00
41830;BME280;38614;43.472;23.936;2022-11-15T08:22:33;100852.09;;;8.13;100.00
41830;BME280;38614;43.472;23.936;2022-11-15T08:25:39;100863.72;;;8.27;100.00
41830;BME280;38614;43.472;23.936;2022-11-15T08:28:45;100861.81;;;8.37;100.00
41830;BME280;38614;43.472;23.936;2022-11-15T08:31:54;100858.25;;;8.36;100.00
41830;BME280;38614;43.472;23.936;2022-11-15T08:35:00;100851.44;;;8.42;100.00
41830;BME280;38614;43.472;23.936;2022-11-15T08:38:07;100853.69;;;8.32;100.00
41830;BME280;38614;43.472;23.936;2022-11-15T08:41:34;100836.19;;;8.27;100.00
41830;BME280;38614;43.472;23.936;2022-11-15T08:44:41;100842.34;;;8.33;100.00
41830;BME280;38614;43.472;23.936;2022-11-15T08:47:47;100845.59;;;8.44;100.00
41830;BME280;38614;43.472;23.936;2022-11-15T08:50:59;100817.09;;;8.40;100.00
41830;BME280;38614;43.472;23.936;2022-11-15T08:54:05;100823.56;;;8.44;100.00
41830;BME280;38614;43.472;23.936;2022-11-15T08:57:11;100814.03;;;8.41;100.00
41830;BME280;38614;43.472;23.936;2022-11-15T09:00:18;100820.66;;;8.49;100.00
41830;BME280;38614;43.472;23.936;2022-11-15T09:03:25;100834.53;;;8.61;100.00
41830;BME280;38614;43.472;23.936;2022-11-15T09:06:31;100828.06;;;8.66;100.00
41830;BME280;38614;43.472;23.936;2022-11-15T09:09:38;100820.88;;;8.73;100.00
41830;BME280;38614;43.472;23.936;2022-11-15T09:12:44;100788.84;;;8.60;100.00
41830;BME280;38614;43.472;23.936;2022-11-15T09:15:51;100810.34;;;8.75;100.00
41830;BME280;38614;43.472;23.936;2022-11-15T09:18:57;100807.88;;;8.82;100.00
41830;BME280;38614;43.472;23.936;2022-11-15T09:22:06;100812.06;;;8.89;100.00
41830;BME280;38614;43.472;23.936;2022-11-15T09:25:13;100802.22;;;8.79;100.00
41830;BME280;38614;43.472;23.936;2022-11-15T09:28:19;100784.41;;;8.76;100.00
41830;BME280;38614;43.472;23.936;2022-11-15T09:31:43;100781.28;;;8.87;100.00
41830;BME280;38614;43.472;23.936;2022-11-15T09:34:50;100771.88;;;8.88;100.00
41830;BME280;38614;43.472;23.936;2022-11-15T09:37:57;100776.69;;;8.91;100.00
41830;BME280;38614;43.472;23.936;2022-11-15T09:44:38;100752.75;;;8.82;100.00
41830;BME280;38614;43.472;23.936;2022-11-15T09:47:59;100749.81;;;8.88;100.00
41830;BME280;38614;43.472;23.936;2022-11-15T09:51:34;100747.47;;;8.98;100.00
41830;BME280;38614;43.472;23.936;2022-11-15T09:54:30;100751.91;;;9.11;100.00
41830;BME280;38614;43.472;23.936;2022-11-15T09:57:44;100749.72;;;9.05;100.00
41830;BME280;38614;43.472;23.936;2022-11-15T10:00:47;100747.28;;;9.03;100.00
41830;BME280;38614;43.472;23.936;2022-11-15T10:03:39;100750.22;;;8.98;100.00
41830;BME280;38614;43.472;23.936;2022-11-15T10:06:31;100747.66;;;8.93;100.00
41830;BME280;38614;43.472;23.936;2022-11-15T10:09:27;100741.78;;;9.03;100.00
41830;BME280;38614;43.472;23.936;2022-11-15T10:12:17;100732.97;;;9.10;100.00
41830;BME280;38614;43.472;23.936;2022-11-15T10:15:14;100733.88;;;9.23;100.00
41830;BME280;38614;43.472;23.936;2022-11-15T10:18:30;100726.06;;;9.04;100.00
41830;BME280;38614;43.472;23.936;2022-11-15T10:24:36;100718.97;;;8.94;100.00
41830;BME280;38614;43.472;23.936;2022-11-15T10:27:25;100712.91;;;9.01;100.00
41830;BME280;38614;43.472;23.936;2022-11-15T10:30:17;100706.13;;;8.98;100.00
41830;BME280;38614;43.472;23.936;2022-11-15T10:33:35;100709.06;;;8.93;100.00
41830;BME280;38614;43.472;23.936;2022-11-15T10:36:26;100703.91;;;8.92;100.00
41830;BME280;38614;43.472;23.936;2022-11-15T10:39:14;100691.53;;;8.98;100.00
41830;BME280;38614;43.472;23.936;2022-11-15T10:42:27;100637.28;;;8.69;100.00
41830;BME280;38614;43.472;23.936;2022-11-15T10:45:42;100690.69;;;9.06;100.00
41830;BME280;38614;43.472;23.936;2022-11-15T10:48:30;100689.53;;;9.07;100.00
41830;BME280;38614;43.472;23.936;2022-11-15T10:51:25;100684.81;;;8.87;100.00
41830;BME280;38614;43.472;23.936;2022-11-15T10:54:39;100684.25;;;8.93;100.00
41830;BME280;38614;43.472;23.936;2022-11-15T10:57:31;100677.47;;;8.91;100.00
41830;BME280;38614;43.472;23.936;2022-11-15T11:03:34;100670.81;;;8.92;100.00
41830;BME280;38614;43.472;23.936;2022-11-15T11:06:22;100658.88;;;8.88;100.00
41830;BME280;38614;43.472;23.936;2022-11-15T11:12:12;100666.59;;;9.15;100.00
41830;BME280;38614;43.472;23.936;2022-11-15T11:15:05;100661.38;;;9.22;100.00
41830;BME280;38614;43.472;23.936;2022-11-15T11:18:20;100661.91;;;9.16;100.00
41830;BME280;38614;43.472;23.936;2022-11-15T11:21:14;100641.47;;;8.96;100.00
41830;BME280;38614;43.472;23.936;2022-11-15T11:30:23;100636.47;;;9.31;100.00
41830;BME280;38614;43.472;23.936;2022-11-15T11:33:21;100619.31;;;9.25;100.00
41830;BME280;38614;43.472;23.936;2022-11-15T11:36:32;100629.03;;;9.43;100.00
41830;BME280;38614;43.472;23.936;2022-11-15T11:39:30;100630.03;;;9.39;100.00
41830;BME280;38614;43.472;23.936;2022-11-15T11:42:32;100620.06;;;9.47;100.00
41830;BME280;38614;43.472;23.936;2022-11-15T11:49:22;100597.00;;;9.18;100.00
41830;BME280;38614;43.472;23.936;2022-11-15T11:55:16;100605.53;;;9.25;100.00
41830;BME280;38614;43.472;23.936;2022-11-15T12:01:28;100584.34;;;9.17;100.00
41830;BME280;38614;43.472;23.936;2022-11-15T12:04:28;100584.81;;;9.19;100.00
41830;BME280;38614;43.472;23.936;2022-11-15T12:07:27;100563.44;;;9.16;100.00
41830;BME280;38614;43.472;23.936;2022-11-15T12:10:28;100573.69;;;9.28;100.00
41830;BME280;38614;43.472;23.936;2022-11-15T12:13:21;100556.34;;;9.27;100.00
41830;BME280;38614;43.472;23.936;2022-11-15T12:16:19;100573.13;;;9.22;100.00
41830;BME280;38614;43.472;23.936;2022-11-15T12:19:09;100567.53;;;9.10;100.00
41830;BME280;38614;43.472;23.936;2022-11-15T12:22:04;100560.44;;;9.21;100.00
41830;BME280;38614;43.472;23.936;2022-11-15T12:24:57;100565.84;;;9.18;100.00
41830;BME280;38614;43.472;23.936;2022-11-15T12:27:49;100566.88;;;9.13;100.00
41830;BME280;38614;43.472;23.936;2022-11-15T12:30:45;100543.38;;;8.95;100.00
41830;BME280;38614;43.472;23.936;2022-11-15T12:33:41;100541.53;;;8.99;100.00
41830;BME280;38614;43.472;23.936;2022-11-15T12:36:35;100563.06;;;9.05;100.00
41830;BME280;38614;43.472;23.936;2022-11-15T12:40:27;100558.53;;;9.01;100.00
41830;BME280;38614;43.472;23.936;2022-11-15T12:43:32;100560.66;;;9.04;100.00
41830;BME280;38614;43.472;23.936;2022-11-15T12:49:10;100548.41;;;8.93;100.00
41830;BME280;38614;43.472;23.936;2022-11-15T12:52:11;100548.91;;;8.95;100.00
41830;BME280;38614;43.472;23.936;2022-11-15T12:55:00;100540.13;;;8.93;100.00
41830;BME280;38614;43.472;23.936;2022-11-15T12:57:49;100546.78;;;8.92;100.00
41830;BME280;38614;43.472;23.936;2022-11-15T13:00:37;100550.84;;;8.94;100.00
41830;BME280;38614;43.472;23.936;2022-11-15T13:03:26;100543.84;;;8.97;100.00
41830;BME280;38614;43.472;23.936;2022-11-15T13:06:38;100550.03;;;8.94;100.00
41830;BME280;38614;43.472;23.936;2022-11-15T13:18:38;100551.66;;;8.95;100.00
41830;BME280;38614;43.472;23.936;2022-11-15T13:21:26;100540.13;;;8.93;100.00
41830;BME280;38614;43.472;23.936;2022-11-15T13:24:32;100534.84;;;8.88;100.00
41830;BME280;38614;43.472;23.936;2022-11-15T13:27:20;100534.63;;;8.93;100.00
41830;BME280;38614;43.472;23.936;2022-11-15T13:30:20;100516.47;;;8.92;100.00
41830;BME280;38614;43.472;23.936;2022-11-15T13:33:13;100526.16;;;8.98;100.00
41830;BME280;38614;43.472;23.936;2022-11-15T13:36:27;100531.78;;;9.01;100.00
41830;BME280;38614;43.472;23.936;2022-11-15T13:39:32;100526.50;;;8.96;100.00
41830;BME280;38614;43.472;23.936;2022-11-15T13:42:28;100531.06;;;8.92;100.00
41830;BME280;38614;43.472;23.936;2022-11-15T13:45:18;100520.84;;;8.93;100.00
41830;BME280;38614;43.472;23.936;2022-11-15T13:48:07;100518.69;;;8.98;100.00
41830;BME280;38614;43.472;23.936;2022-11-15T13:50:56;100517.50;;;8.87;100.00
41830;BME280;38614;43.472;23.936;2022-11-15T13:53:49;100513.22;;;8.77;100.00
41830;BME280;38614;43.472;23.936;2022-11-15T13:56:42;100499.78;;;8.76;100.00
41830;BME280;38614;43.472;23.936;2022-11-15T13:59:33;100505.91;;;8.61;100.00
41830;BME280;38614;43.472;23.936;2022-11-15T14:02:27;100505.03;;;8.69;100.00
41830;BME280;38614;43.472;23.936;2022-11-15T14:05:19;100504.34;;;8.72;100.00
41830;BME280;38614;43.472;23.936;2022-11-15T14:11:17;100506.72;;;8.61;100.00
41830;BME280;38614;43.472;23.936;2022-11-15T14:17:00;100508.66;;;8.61;100.00
41830;BME280;38614;43.472;23.936;2022-11-15T14:19:48;100498.56;;;8.65;100.00
41830;BME280;38614;43.472;23.936;2022-11-15T14:22:36;100495.69;;;8.61;100.00
41830;BME280;38614;43.472;23.936;2022-11-15T14:25:27;100472.00;;;8.48;100.00
41830;BME280;38614;43.472;23.936;2022-11-15T14:28:29;100487.44;;;8.61;100.00
41830;BME280;38614;43.472;23.936;2022-11-15T14:31:19;100480.19;;;8.56;100.00
41830;BME280;38614;43.472;23.936;2022-11-15T14:34:08;100462.13;;;8.47;100.00
41830;BME280;38614;43.472;23.936;2022-11-15T14:36:56;100469.75;;;8.62;100.00
41830;BME280;38614;43.472;23.936;2022-11-15T14:39:44;100476.34;;;8.49;100.00
41830;BME280;38614;43.472;23.936;2022-11-15T14:42:32;100480.38;;;8.51;100.00
41830;BME280;38614;43.472;23.936;2022-11-15T14:45:21;100476.94;;;8.54;100.00
41830;BME280;38614;43.472;23.936;2022-11-15T14:48:09;100471.38;;;8.42;100.00
41830;BME280;38614;43.472;23.936;2022-11-15T14:50:59;100464.16;;;8.38;100.00
41830;BME280;38614;43.472;23.936;2022-11-15T14:53:49;100461.75;;;8.27;100.00
41830;BME280;38614;43.472;23.936;2022-11-15T14:56:40;100466.91;;;8.38;100.00
41830;BME280;38614;43.472;23.936;2022-11-15T14:59:30;100460.91;;;8.36;100.00
41830;BME280;38614;43.472;23.936;2022-11-15T15:02:23;100459.56;;;8.42;100.00
41830;BME280;38614;43.472;23.936;2022-11-15T15:05:19;100455.66;;;8.43;100.00
41830;BME280;38614;43.472;23.936;2022-11-15T15:08:08;100459.56;;;8.42;100.00
41830;BME280;38614;43.472;23.936;2022-11-15T15:10:59;100444.09;;;8.28;100.00
41830;BME280;38614;43.472;23.936;2022-11-15T15:13:47;100450.63;;;8.45;100.00
41830;BME280;38614;43.472;23.936;2022-11-15T15:16:35;100453.25;;;8.41;100.00
41830;BME280;38614;43.472;23.936;2022-11-15T15:19:25;100452.38;;;8.49;100.00
41830;BME280;38614;43.472;23.936;2022-11-15T15:22:15;100436.97;;;8.27;100.00
41830;BME280;38614;43.472;23.936;2022-11-15T15:25:27;100452.03;;;8.30;100.00
41830;BME280;38614;43.472;23.936;2022-11-15T15:28:16;100450.59;;;8.24;100.00
41830;BME280;38614;43.472;23.936;2022-11-15T15:31:03;100444.16;;;8.20;100.00
41830;BME280;38614;43.472;23.936;2022-11-15T15:33:51;100441.88;;;8.22;100.00
41830;BME280;38614;43.472;23.936;2022-11-15T15:36:39;100433.97;;;8.20;100.00
41830;BME280;38614;43.472;23.936;2022-11-15T15:39:27;100439.94;;;8.22;100.00
41830;BME280;38614;43.472;23.936;2022-11-15T15:42:14;100409.56;;;8.31;100.00
41830;BME280;38614;43.472;23.936;2022-11-15T15:45:02;100425.09;;;8.36;100.00
41830;BME280;38614;43.472;23.936;2022-11-15T15:47:55;100397.97;;;8.05;100.00
41830;BME280;38614;43.472;23.936;2022-11-15T15:50:44;100432.94;;;8.25;100.00
41830;BME280;38614;43.472;23.936;2022-11-15T15:53:32;100423.59;;;8.17;100.00
41830;BME280;38614;43.472;23.936;2022-11-15T15:56:20;100433.28;;;8.23;100.00
41830;BME280;38614;43.472;23.936;2022-11-15T15:59:08;100424.91;;;8.20;100.00
41830;BME280;38614;43.472;23.936;2022-11-15T16:01:55;100431.66;;;8.22;100.00
41830;BME280;38614;43.472;23.936;2022-11-15T16:04:43;100428.13;;;8.22;100.00
41830;BME280;38614;43.472;23.936;2022-11-15T16:07:31;100424.75;;;8.16;100.00
41830;BME280;38614;43.472;23.936;2022-11-15T16:13:07;100417.16;;;8.13;100.00
41830;BME280;38614;43.472;23.936;2022-11-15T16:15:54;100415.56;;;8.12;100.00
41830;BME280;38614;43.472;23.936;2022-11-15T16:18:42;100420.03;;;8.17;100.00
41830;BME280;38614;43.472;23.936;2022-11-15T16:21:30;100406.84;;;8.10;100.00
41830;BME280;38614;43.472;23.936;2022-11-15T16:24:20;100414.53;;;8.17;100.00
41830;BME280;38614;43.472;23.936;2022-11-15T16:27:17;100413.41;;;8.18;100.00
41830;BME280;38614;43.472;23.936;2022-11-15T16:30:14;100363.19;;;7.79;100.00
41830;BME280;38614;43.472;23.936;2022-11-15T16:33:02;100410.72;;;8.09;100.00
41830;BME280;38614;43.472;23.936;2022-11-15T16:35:53;100403.00;;;8.03;100.00
41830;BME280;38614;43.472;23.936;2022-11-15T16:38:40;100396.81;;;8.06;100.00
41830;BME280;38614;43.472;23.936;2022-11-15T16:41:32;100380.66;;;8.04;100.00
41830;BME280;38614;43.472;23.936;2022-11-15T16:44:40;100396.47;;;8.07;100.00
41830;BME280;38614;43.472;23.936;2022-11-15T16:47:31;100388.22;;;8.07;100.00
41830;BME280;38614;43.472;23.936;2022-11-15T16:50:24;100391.78;;;8.08;100.00
41830;BME280;38614;43.472;23.936;2022-11-15T16:53:16;100379.97;;;8.07;100.00